sensor_id;sensor_type;location;lat;lon;timestamp;P1;durP1;ratioP1;P2;durP2;ratioP2
4963;SDS011;2497;47.410;9.740;2023-03-21T00:01:48;7.57;;;2.93;;
4963;SDS011;2497;47.410;9.740;2023-03-21T00:04:16;5.83;;;3.13;;
4963;SDS011;2497;47.410;9.740;2023-03-21T00:06:45;8.33;;;3.27;;
4963;SDS011;2497;47.410;9.740;2023-03-21T00:09:13;8.23;;;3.17;;
4963;SDS011;2497;47.410;9.740;2023-03-21T00:11:40;2.70;;;2.10;;
4963;SDS011;2497;47.410;9.740;2023-03-21T00:14:07;4.47;;;2.40;;
4963;SDS011;2497;47.410;9.740;2023-03-21T00:16:39;4.87;;;2.40;;
4963;SDS011;2497;47.410;9.740;2023-03-21T00:19:06;3.10;;;1.90;;
4963;SDS011;2497;47.410;9.740;2023-03-21T00:21:34;3.80;;;2.30;;
4963;SDS011;2497;47.410;9.740;2023-03-21T00:24:04;3.60;;;2.40;;
4963;SDS011;2497;47.410;9.740;2023-03-21T00:26:32;4.90;;;2.33;;
4963;SDS011;2497;47.410;9.740;2023-03-21T00:28:59;4.33;;;2.20;;
4963;SDS011;2497;47.410;9.740;2023-03-21T00:31:27;2.63;;;1.70;;
4963;SDS011;2497;47.410;9.740;2023-03-21T00:33:54;2.83;;;1.90;;
4963;SDS011;2497;47.410;9.740;2023-03-21T00:36:22;2.50;;;1.73;;
4963;SDS011;2497;47.410;9.740;2023-03-21T00:38:50;2.20;;;1.60;;
4963;SDS011;2497;47.410;9.740;2023-03-21T00:41:21;2.33;;;1.60;;
4963;SDS011;2497;47.410;9.740;2023-03-21T00:43:48;3.53;;;1.83;;
4963;SDS011;2497;47.410;9.740;2023-03-21T00:46:16;2.50;;;1.77;;
4963;SDS011;2497;47.410;9.740;2023-03-21T00:48:43;2.77;;;2.10;;
4963;SDS011;2497;47.410;9.740;2023-03-21T00:51:11;2.03;;;1.53;;
4963;SDS011;2497;47.410;9.740;2023-03-21T00:53:40;2.13;;;1.60;;
4963;SDS011;2497;47.410;9.740;2023-03-21T00:56:08;2.80;;;1.87;;
4963;SDS011;2497;47.410;9.740;2023-03-21T00:58:37;2.10;;;1.90;;
4963;SDS011;2497;47.410;9.740;2023-03-21T01:01:04;2.53;;;2.17;;
4963;SDS011;2497;47.410;9.740;2023-03-21T01:03:33;2.77;;;1.90;;
4963;SDS011;2497;47.410;9.740;2023-03-21T01:06:07;3.00;;;1.70;;
4963;SDS011;2497;47.410;9.740;2023-03-21T01:08:38;3.20;;;1.97;;
4963;SDS011;2497;47.410;9.740;2023-03-21T01:11:07;2.37;;;1.50;;
4963;SDS011;2497;47.410;9.740;2023-03-21T01:13:38;2.70;;;1.70;;
4963;SDS011;2497;47.410;9.740;2023-03-21T01:16:06;5.50;;;1.80;;
4963;SDS011;2497;47.410;9.740;2023-03-21T01:18:35;3.20;;;1.70;;
4963;SDS011;2497;47.410;9.740;2023-03-21T01:21:05;2.43;;;1.60;;
4963;SDS011;2497;47.410;9.740;2023-03-21T01:23:34;1.70;;;1.40;;
4963;SDS011;2497;47.410;9.740;2023-03-21T01:26:01;2.30;;;1.80;;
4963;SDS011;2497;47.410;9.740;2023-03-21T01:28:28;1.80;;;1.47;;
4963;SDS011;2497;47.410;9.740;2023-03-21T01:30:59;6.77;;;1.57;;
4963;SDS011;2497;47.410;9.740;2023-03-21T01:33:27;2.27;;;1.67;;
4963;SDS011;2497;47.410;9.740;2023-03-21T01:35:54;1.80;;;1.40;;
4963;SDS011;2497;47.410;9.740;2023-03-21T01:38:22;2.03;;;1.60;;
4963;SDS011;2497;47.410;9.740;2023-03-21T01:40:49;13.20;;;4.50;;
4963;SDS011;2497;47.410;9.740;2023-03-21T01:43:23;18.10;;;5.87;;
4963;SDS011;2497;47.410;9.740;2023-03-21T01:49:06;12.53;;;4.70;;
4963;SDS011;2497;47.410;9.740;2023-03-21T01:51:40;9.17;;;4.00;;
4963;SDS011;2497;47.410;9.740;2023-03-21T01:54:12;8.43;;;4.30;;
4963;SDS011;2497;47.410;9.740;2023-03-21T01:56:43;10.70;;;5.40;;
4963;SDS011;2497;47.410;9.740;2023-03-21T01:59:13;7.97;;;5.00;;
4963;SDS011;2497;47.410;9.740;2023-03-21T02:01:47;8.50;;;5.10;;
4963;SDS011;2497;47.410;9.740;2023-03-21T02:04:15;7.10;;;3.70;;
4963;SDS011;2497;47.410;9.740;2023-03-21T02:06:47;5.80;;;3.50;;
4963;SDS011;2497;47.410;9.740;2023-03-21T02:09:17;12.23;;;2.97;;
4963;SDS011;2497;47.410;9.740;2023-03-21T02:11:47;2.97;;;1.80;;
4963;SDS011;2497;47.410;9.740;2023-03-21T02:14:16;2.40;;;1.87;;
4963;SDS011;2497;47.410;9.740;2023-03-21T02:16:51;2.10;;;1.63;;
4963;SDS011;2497;47.410;9.740;2023-03-21T02:22:49;1.83;;;1.73;;
4963;SDS011;2497;47.410;9.740;2023-03-21T02:25:50;1.70;;;1.40;;
4963;SDS011;2497;47.410;9.740;2023-03-21T02:28:35;2.27;;;1.80;;
4963;SDS011;2497;47.410;9.740;2023-03-21T02:31:17;3.30;;;2.13;;
4963;SDS011;2497;47.410;9.740;2023-03-21T02:34:05;2.33;;;2.03;;
4963;SDS011;2497;47.410;9.740;2023-03-21T02:37:02;2.30;;;1.70;;
4963;SDS011;2497;47.410;9.740;2023-03-21T02:39:36;3.20;;;2.00;;
4963;SDS011;2497;47.410;9.740;2023-03-21T02:42:14;2.13;;;1.90;;
4963;SDS011;2497;47.410;9.740;2023-03-21T02:44:46;2.77;;;1.70;;
4963;SDS011;2497;47.410;9.740;2023-03-21T02:47:22;1.50;;;1.40;;
4963;SDS011;2497;47.410;9.740;2023-03-21T02:49:54;1.80;;;1.43;;
4963;SDS011;2497;47.410;9.740;2023-03-21T02:52:28;4.00;;;1.60;;
4963;SDS011;2497;47.410;9.740;2023-03-21T02:54:58;3.90;;;1.77;;
4963;SDS011;2497;47.410;9.740;2023-03-21T02:57:27;2.33;;;1.60;;
4963;SDS011;2497;47.410;9.740;2023-03-21T02:59:54;2.33;;;1.70;;
4963;SDS011;2497;47.410;9.740;2023-03-21T03:02:24;1.87;;;1.40;;
4963;SDS011;2497;47.410;9.740;2023-03-21T03:04:53;2.30;;;1.47;;
4963;SDS011;2497;47.410;9.740;2023-03-21T03:07:25;1.77;;;1.20;;
4963;SDS011;2497;47.410;9.740;2023-03-21T03:10:15;2.00;;;1.50;;
4963;SDS011;2497;47.410;9.740;2023-03-21T03:12:55;2.43;;;1.50;;
4963;SDS011;2497;47.410;9.740;2023-03-21T03:15:30;2.07;;;1.20;;
4963;SDS011;2497;47.410;9.740;2023-03-21T03:18:08;2.80;;;1.40;;
4963;SDS011;2497;47.410;9.740;2023-03-21T03:20:44;2.30;;;1.67;;
4963;SDS011;2497;47.410;9.740;2023-03-21T03:23:23;2.20;;;1.73;;
4963;SDS011;2497;47.410;9.740;2023-03-21T03:25:54;3.47;;;1.53;;
4963;SDS011;2497;47.410;9.740;2023-03-21T03:28:29;3.43;;;1.80;;
4963;SDS011;2497;47.410;9.740;2023-03-21T03:30:58;1.83;;;1.50;;
4963;SDS011;2497;47.410;9.740;2023-03-21T03:33:27;2.50;;;1.57;;
4963;SDS011;2497;47.410;9.740;2023-03-21T03:35:56;2.40;;;1.47;;
4963;SDS011;2497;47.410;9.740;2023-03-21T03:38:26;4.17;;;1.83;;
4963;SDS011;2497;47.410;9.740;2023-03-21T03:40:57;3.20;;;1.70;;
4963;SDS011;2497;47.410;9.740;2023-03-21T03:43:29;2.33;;;1.53;;
4963;SDS011;2497;47.410;9.740;2023-03-21T03:46:01;2.37;;;1.40;;
4963;SDS011;2497;47.410;9.740;2023-03-21T03:48:36;1.97;;;1.60;;
4963;SDS011;2497;47.410;9.740;2023-03-21T03:51:12;1.53;;;1.43;;
4963;SDS011;2497;47.410;9.740;2023-03-21T03:53:43;2.60;;;1.50;;
4963;SDS011;2497;47.410;9.740;2023-03-21T03:56:16;6.73;;;2.17;;
4963;SDS011;2497;47.410;9.740;2023-03-21T03:58:43;1.77;;;1.43;;
4963;SDS011;2497;47.410;9.740;2023-03-21T04:01:11;7.00;;;1.73;;
4963;SDS011;2497;47.410;9.740;2023-03-21T04:03:39;3.50;;;2.00;;
4963;SDS011;2497;47.410;9.740;2023-03-21T04:06:08;3.77;;;2.20;;
4963;SDS011;2497;47.410;9.740;2023-03-21T04:08:35;3.83;;;2.20;;
4963;SDS011;2497;47.410;9.740;2023-03-21T04:11:04;2.50;;;2.03;;
4963;SDS011;2497;47.410;9.740;2023-03-21T04:13:32;4.60;;;2.37;;
4963;SDS011;2497;47.410;9.740;2023-03-21T04:15:59;2.90;;;2.10;;
4963;SDS011;2497;47.410;9.740;2023-03-21T04:18:27;3.10;;;2.33;;
4963;SDS011;2497;47.410;9.740;2023-03-21T04:20:54;4.43;;;1.93;;
4963;SDS011;2497;47.410;9.740;2023-03-21T04:23:22;10.57;;;2.80;;
4963;SDS011;2497;47.410;9.740;2023-03-21T04:25:50;5.80;;;2.77;;
4963;SDS011;2497;47.410;9.740;2023-03-21T04:28:19;4.23;;;2.33;;
4963;SDS011;2497;47.410;9.740;2023-03-21T04:30:47;6.07;;;2.60;;
4963;SDS011;2497;47.410;9.740;2023-03-21T04:33:15;4.70;;;2.63;;
4963;SDS011;2497;47.410;9.740;2023-03-21T04:35:42;6.13;;;2.30;;
4963;SDS011;2497;47.410;9.740;2023-03-21T04:38:10;4.27;;;2.30;;
4963;SDS011;2497;47.410;9.740;2023-03-21T04:40:37;5.57;;;2.30;;
4963;SDS011;2497;47.410;9.740;2023-03-21T04:43:04;5.53;;;2.30;;
4963;SDS011;2497;47.410;9.740;2023-03-21T04:45:33;17.17;;;2.53;;
4963;SDS011;2497;47.410;9.740;2023-03-21T04:48:00;4.97;;;2.90;;
4963;SDS011;2497;47.410;9.740;2023-03-21T04:50:30;5.30;;;2.30;;
4963;SDS011;2497;47.410;9.740;2023-03-21T04:52:57;3.00;;;1.70;;
4963;SDS011;2497;47.410;9.740;2023-03-21T04:55:24;5.73;;;2.00;;
4963;SDS011;2497;47.410;9.740;2023-03-21T04:57:52;8.20;;;2.37;;
4963;SDS011;2497;47.410;9.740;2023-03-21T05:00:19;5.90;;;2.13;;
4963;SDS011;2497;47.410;9.740;2023-03-21T05:02:49;5.00;;;2.10;;
4963;SDS011;2497;47.410;9.740;2023-03-21T05:05:16;4.03;;;1.90;;
4963;SDS011;2497;47.410;9.740;2023-03-21T05:07:43;3.03;;;1.90;;
4963;SDS011;2497;47.410;9.740;2023-03-21T05:10:10;7.40;;;2.30;;
4963;SDS011;2497;47.410;9.740;2023-03-21T05:12:41;3.10;;;1.80;;
4963;SDS011;2497;47.410;9.740;2023-03-21T05:15:08;8.90;;;3.13;;
4963;SDS011;2497;47.410;9.740;2023-03-21T05:17:35;2.70;;;2.20;;
4963;SDS011;2497;47.410;9.740;2023-03-21T05:20:04;3.77;;;2.23;;
4963;SDS011;2497;47.410;9.740;2023-03-21T05:22:33;12.93;;;2.83;;
4963;SDS011;2497;47.410;9.740;2023-03-21T05:25:05;5.13;;;2.47;;
4963;SDS011;2497;47.410;9.740;2023-03-21T05:27:33;3.63;;;3.10;;
4963;SDS011;2497;47.410;9.740;2023-03-21T05:30:02;6.63;;;3.90;;
4963;SDS011;2497;47.410;9.740;2023-03-21T05:32:31;7.07;;;3.60;;
4963;SDS011;2497;47.410;9.740;2023-03-21T05:34:59;6.77;;;4.20;;
4963;SDS011;2497;47.410;9.740;2023-03-21T05:37:28;14.70;;;3.90;;
4963;SDS011;2497;47.410;9.740;2023-03-21T05:39:55;5.03;;;4.00;;
4963;SDS011;2497;47.410;9.740;2023-03-21T05:42:22;8.73;;;2.60;;
4963;SDS011;2497;47.410;9.740;2023-03-21T05:44:50;9.47;;;3.30;;
4963;SDS011;2497;47.410;9.740;2023-03-21T05:47:17;7.33;;;2.80;;
4963;SDS011;2497;47.410;9.740;2023-03-21T05:49:45;3.50;;;2.50;;
4963;SDS011;2497;47.410;9.740;2023-03-21T05:52:12;2.97;;;2.17;;
4963;SDS011;2497;47.410;9.740;2023-03-21T05:54:41;4.43;;;2.83;;
4963;SDS011;2497;47.410;9.740;2023-03-21T05:57:08;2.50;;;1.97;;
4963;SDS011;2497;47.410;9.740;2023-03-21T05:59:35;2.70;;;2.30;;
4963;SDS011;2497;47.410;9.740;2023-03-21T06:02:02;5.33;;;2.50;;
4963;SDS011;2497;47.410;9.740;2023-03-21T06:04:29;4.37;;;2.47;;
4963;SDS011;2497;47.410;9.740;2023-03-21T06:06:56;2.70;;;1.90;;
4963;SDS011;2497;47.410;9.740;2023-03-21T06:09:23;4.70;;;2.20;;
4963;SDS011;2497;47.410;9.740;2023-03-21T06:11:53;6.73;;;2.90;;
4963;SDS011;2497;47.410;9.740;2023-03-21T06:14:22;5.63;;;4.00;;
4963;SDS011;2497;47.410;9.740;2023-03-21T06:16:49;12.37;;;7.40;;
4963;SDS011;2497;47.410;9.740;2023-03-21T06:19:18;17.73;;;8.07;;
4963;SDS011;2497;47.410;9.740;2023-03-21T06:21:45;20.23;;;10.00;;
4963;SDS011;2497;47.410;9.740;2023-03-21T06:24:13;13.50;;;6.33;;
4963;SDS011;2497;47.410;9.740;2023-03-21T06:26:41;13.37;;;6.63;;
4963;SDS011;2497;47.410;9.740;2023-03-21T06:29:10;12.87;;;6.20;;
4963;SDS011;2497;47.410;9.740;2023-03-21T06:31:37;12.23;;;6.67;;
4963;SDS011;2497;47.410;9.740;2023-03-21T06:34:05;12.10;;;6.70;;
4963;SDS011;2497;47.410;9.740;2023-03-21T06:36:32;16.50;;;7.63;;
4963;SDS011;2497;47.410;9.740;2023-03-21T06:38:59;26.37;;;8.60;;
4963;SDS011;2497;47.410;9.740;2023-03-21T06:41:26;19.43;;;8.70;;
4963;SDS011;2497;47.410;9.740;2023-03-21T06:43:53;21.07;;;10.03;;
4963;SDS011;2497;47.410;9.740;2023-03-21T06:46:22;14.13;;;7.40;;
4963;SDS011;2497;47.410;9.740;2023-03-21T06:48:49;22.50;;;7.37;;
4963;SDS011;2497;47.410;9.740;2023-03-21T06:51:16;17.73;;;6.73;;
4963;SDS011;2497;47.410;9.740;2023-03-21T06:53:43;14.50;;;7.50;;
4963;SDS011;2497;47.410;9.740;2023-03-21T06:56:11;15.80;;;7.93;;
4963;SDS011;2497;47.410;9.740;2023-03-21T06:58:39;16.63;;;7.53;;
4963;SDS011;2497;47.410;9.740;2023-03-21T07:01:06;15.80;;;7.47;;
4963;SDS011;2497;47.410;9.740;2023-03-21T07:03:35;11.60;;;6.37;;
4963;SDS011;2497;47.410;9.740;2023-03-21T07:06:04;16.73;;;5.30;;
4963;SDS011;2497;47.410;9.740;2023-03-21T07:08:32;8.67;;;4.77;;
4963;SDS011;2497;47.410;9.740;2023-03-21T07:11:01;22.77;;;5.70;;
4963;SDS011;2497;47.410;9.740;2023-03-21T07:13:28;11.50;;;4.27;;
4963;SDS011;2497;47.410;9.740;2023-03-21T07:15:55;5.97;;;4.10;;
4963;SDS011;2497;47.410;9.740;2023-03-21T07:18:23;7.50;;;3.80;;
4963;SDS011;2497;47.410;9.740;2023-03-21T07:20:52;7.37;;;4.00;;
4963;SDS011;2497;47.410;9.740;2023-03-21T07:23:19;11.13;;;3.97;;
4963;SDS011;2497;47.410;9.740;2023-03-21T07:25:47;7.37;;;4.33;;
4963;SDS011;2497;47.410;9.740;2023-03-21T07:28:16;14.57;;;4.80;;
4963;SDS011;2497;47.410;9.740;2023-03-21T07:30:44;8.37;;;3.93;;
4963;SDS011;2497;47.410;9.740;2023-03-21T07:33:16;8.43;;;4.87;;
4963;SDS011;2497;47.410;9.740;2023-03-21T07:35:43;7.13;;;3.60;;
4963;SDS011;2497;47.410;9.740;2023-03-21T07:38:12;10.23;;;4.40;;
4963;SDS011;2497;47.410;9.740;2023-03-21T07:40:41;7.90;;;3.90;;
4963;SDS011;2497;47.410;9.740;2023-03-21T07:43:08;5.43;;;3.83;;
4963;SDS011;2497;47.410;9.740;2023-03-21T07:45:35;8.47;;;4.60;;
4963;SDS011;2497;47.410;9.740;2023-03-21T07:48:02;15.03;;;5.30;;
4963;SDS011;2497;47.410;9.740;2023-03-21T07:50:30;9.83;;;4.90;;
4963;SDS011;2497;47.410;9.740;2023-03-21T07:52:57;6.00;;;3.73;;
4963;SDS011;2497;47.410;9.740;2023-03-21T07:55:26;5.93;;;4.40;;
4963;SDS011;2497;47.410;9.740;2023-03-21T07:57:53;6.37;;;3.90;;
4963;SDS011;2497;47.410;9.740;2023-03-21T08:00:21;10.70;;;4.30;;
4963;SDS011;2497;47.410;9.740;2023-03-21T08:02:49;8.70;;;3.63;;
4963;SDS011;2497;47.410;9.740;2023-03-21T08:05:19;8.23;;;4.80;;
4963;SDS011;2497;47.410;9.740;2023-03-21T08:07:47;6.90;;;4.10;;
4963;SDS011;2497;47.410;9.740;2023-03-21T08:10:14;22.33;;;4.10;;
4963;SDS011;2497;47.410;9.740;2023-03-21T08:12:43;13.10;;;6.87;;
4963;SDS011;2497;47.410;9.740;2023-03-21T08:15:10;7.57;;;4.70;;
4963;SDS011;2497;47.410;9.740;2023-03-21T08:17:38;6.97;;;4.10;;
4963;SDS011;2497;47.410;9.740;2023-03-21T08:20:06;6.63;;;4.07;;
4963;SDS011;2497;47.410;9.740;2023-03-21T08:22:36;8.47;;;4.20;;
4963;SDS011;2497;47.410;9.740;2023-03-21T08:25:04;7.70;;;3.90;;
4963;SDS011;2497;47.410;9.740;2023-03-21T08:27:34;12.70;;;4.73;;
4963;SDS011;2497;47.410;9.740;2023-03-21T08:30:03;6.73;;;3.97;;
4963;SDS011;2497;47.410;9.740;2023-03-21T08:32:30;7.33;;;4.57;;
4963;SDS011;2497;47.410;9.740;2023-03-21T08:34:58;8.10;;;3.80;;
4963;SDS011;2497;47.410;9.740;2023-03-21T08:37:26;7.80;;;4.40;;
4963;SDS011;2497;47.410;9.740;2023-03-21T08:39:54;5.93;;;3.87;;
4963;SDS011;2497;47.410;9.740;2023-03-21T08:42:21;5.83;;;3.57;;
4963;SDS011;2497;47.410;9.740;2023-03-21T08:44:48;3.60;;;2.93;;
4963;SDS011;2497;47.410;9.740;2023-03-21T08:47:17;6.60;;;3.23;;
4963;SDS011;2497;47.410;9.740;2023-03-21T08:49:44;5.20;;;3.40;;
4963;SDS011;2497;47.410;9.740;2023-03-21T08:52:11;3.73;;;3.00;;
4963;SDS011;2497;47.410;9.740;2023-03-21T08:54:38;6.50;;;3.47;;
4963;SDS011;2497;47.410;9.740;2023-03-21T08:57:06;4.30;;;3.10;;
4963;SDS011;2497;47.410;9.740;2023-03-21T08:59:35;5.93;;;2.70;;
4963;SDS011;2497;47.410;9.740;2023-03-21T09:02:02;4.07;;;2.60;;
4963;SDS011;2497;47.410;9.740;2023-03-21T09:04:31;3.87;;;2.67;;
4963;SDS011;2497;47.410;9.740;2023-03-21T09:06:58;7.40;;;3.10;;
4963;SDS011;2497;47.410;9.740;2023-03-21T09:09:26;4.03;;;3.20;;
4963;SDS011;2497;47.410;9.740;2023-03-21T09:11:54;4.27;;;2.87;;
4963;SDS011;2497;47.410;9.740;2023-03-21T09:14:21;3.87;;;2.80;;
4963;SDS011;2497;47.410;9.740;2023-03-21T09:16:48;4.77;;;3.50;;
4963;SDS011;2497;47.410;9.740;2023-03-21T09:19:16;5.10;;;2.90;;
4963;SDS011;2497;47.410;9.740;2023-03-21T09:21:44;8.63;;;3.40;;
4963;SDS011;2497;47.410;9.740;2023-03-21T09:24:11;4.77;;;2.83;;
4963;SDS011;2497;47.410;9.740;2023-03-21T09:26:39;7.70;;;3.63;;
4963;SDS011;2497;47.410;9.740;2023-03-21T09:29:08;5.63;;;3.50;;
4963;SDS011;2497;47.410;9.740;2023-03-21T09:31:35;4.33;;;2.87;;
4963;SDS011;2497;47.410;9.740;2023-03-21T09:34:04;4.97;;;3.13;;
4963;SDS011;2497;47.410;9.740;2023-03-21T09:36:31;4.80;;;3.07;;
4963;SDS011;2497;47.410;9.740;2023-03-21T09:39:00;5.33;;;2.90;;
4963;SDS011;2497;47.410;9.740;2023-03-21T09:41:40;5.70;;;2.90;;
4963;SDS011;2497;47.410;9.740;2023-03-21T09:44:29;8.83;;;3.17;;
4963;SDS011;2497;47.410;9.740;2023-03-21T09:47:05;5.07;;;2.70;;
4963;SDS011;2497;47.410;9.740;2023-03-21T09:49:40;3.63;;;2.93;;
4963;SDS011;2497;47.410;9.740;2023-03-21T09:52:15;7.40;;;3.47;;
4963;SDS011;2497;47.410;9.740;2023-03-21T09:54:47;5.40;;;3.30;;
4963;SDS011;2497;47.410;9.740;2023-03-21T09:57:19;4.53;;;2.80;;
4963;SDS011;2497;47.410;9.740;2023-03-21T09:59:52;3.90;;;2.43;;
4963;SDS011;2497;47.410;9.740;2023-03-21T10:02:35;4.77;;;2.97;;
4963;SDS011;2497;47.410;9.740;2023-03-21T10:05:09;6.80;;;2.83;;
4963;SDS011;2497;47.410;9.740;2023-03-21T10:07:43;3.70;;;2.53;;
4963;SDS011;2497;47.410;9.740;2023-03-21T10:10:18;3.83;;;2.80;;
4963;SDS011;2497;47.410;9.740;2023-03-21T10:12:47;4.80;;;2.83;;
4963;SDS011;2497;47.410;9.740;2023-03-21T10:15:18;3.67;;;2.77;;
4963;SDS011;2497;47.410;9.740;2023-03-21T10:17:50;5.90;;;2.97;;
4963;SDS011;2497;47.410;9.740;2023-03-21T10:20:21;4.13;;;3.00;;
4963;SDS011;2497;47.410;9.740;2023-03-21T10:22:51;3.33;;;3.03;;
4963;SDS011;2497;47.410;9.740;2023-03-21T10:25:23;5.20;;;2.47;;
4963;SDS011;2497;47.410;9.740;2023-03-21T10:27:53;3.20;;;2.30;;
4963;SDS011;2497;47.410;9.740;2023-03-21T10:30:37;4.03;;;3.03;;
4963;SDS011;2497;47.410;9.740;2023-03-21T10:33:07;3.53;;;2.40;;
4963;SDS011;2497;47.410;9.740;2023-03-21T10:35:37;6.40;;;2.60;;
4963;SDS011;2497;47.410;9.740;2023-03-21T10:38:09;2.70;;;2.33;;
4963;SDS011;2497;47.410;9.740;2023-03-21T10:40:43;4.10;;;2.20;;
4963;SDS011;2497;47.410;9.740;2023-03-21T10:43:17;4.90;;;2.93;;
4963;SDS011;2497;47.410;9.740;2023-03-21T10:46:04;4.40;;;2.60;;
4963;SDS011;2497;47.410;9.740;2023-03-21T10:48:34;4.60;;;2.37;;
4963;SDS011;2497;47.410;9.740;2023-03-21T10:51:02;3.17;;;2.20;;
4963;SDS011;2497;47.410;9.740;2023-03-21T10:53:34;3.20;;;2.60;;
4963;SDS011;2497;47.410;9.740;2023-03-21T10:56:07;5.30;;;3.20;;
4963;SDS011;2497;47.410;9.740;2023-03-21T10:58:37;4.97;;;3.23;;
4963;SDS011;2497;47.410;9.740;2023-03-21T11:01:09;6.40;;;3.03;;
4963;SDS011;2497;47.410;9.740;2023-03-21T11:03:40;7.07;;;3.40;;
4963;SDS011;2497;47.410;9.740;2023-03-21T11:06:12;4.47;;;3.10;;
4963;SDS011;2497;47.410;9.740;2023-03-21T11:08:43;4.80;;;3.20;;
4963;SDS011;2497;47.410;9.740;2023-03-21T11:11:20;5.07;;;3.77;;
4963;SDS011;2497;47.410;9.740;2023-03-21T11:13:54;6.10;;;4.40;;
4963;SDS011;2497;47.410;9.740;2023-03-21T11:16:24;4.67;;;3.30;;
4963;SDS011;2497;47.410;9.740;2023-03-21T11:18:58;5.50;;;3.60;;
4963;SDS011;2497;47.410;9.740;2023-03-21T11:21:26;6.87;;;4.10;;
4963;SDS011;2497;47.410;9.740;2023-03-21T11:24:01;5.33;;;3.30;;
4963;SDS011;2497;47.410;9.740;2023-03-21T11:26:32;5.33;;;3.97;;
4963;SDS011;2497;47.410;9.740;2023-03-21T11:29:07;5.60;;;4.27;;
4963;SDS011;2497;47.410;9.740;2023-03-21T11:31:42;3.00;;;2.70;;
4963;SDS011;2497;47.410;9.740;2023-03-21T11:34:19;6.23;;;3.70;;
4963;SDS011;2497;47.410;9.740;2023-03-21T11:36:51;5.57;;;3.87;;
4963;SDS011;2497;47.410;9.740;2023-03-21T11:39:33;4.30;;;3.20;;
4963;SDS011;2497;47.410;9.740;2023-03-21T11:42:05;3.40;;;3.10;;
4963;SDS011;2497;47.410;9.740;2023-03-21T11:44:56;6.10;;;4.40;;
4963;SDS011;2497;47.410;9.740;2023-03-21T11:47:28;4.90;;;4.10;;
4963;SDS011;2497;47.410;9.740;2023-03-21T11:49:56;6.80;;;4.30;;
4963;SDS011;2497;47.410;9.740;2023-03-21T11:52:26;6.60;;;4.40;;
4963;SDS011;2497;47.410;9.740;2023-03-21T11:55:02;10.00;;;4.70;;
4963;SDS011;2497;47.410;9.740;2023-03-21T11:57:46;7.13;;;5.00;;
4963;SDS011;2497;47.410;9.740;2023-03-21T12:00:23;8.27;;;4.70;;
4963;SDS011;2497;47.410;9.740;2023-03-21T12:05:57;5.60;;;4.90;;
4963;SDS011;2497;47.410;9.740;2023-03-21T12:08:32;10.63;;;4.47;;
4963;SDS011;2497;47.410;9.740;2023-03-21T12:11:09;8.10;;;4.73;;
4963;SDS011;2497;47.410;9.740;2023-03-21T12:13:46;6.57;;;4.60;;
4963;SDS011;2497;47.410;9.740;2023-03-21T12:16:25;4.60;;;3.60;;
4963;SDS011;2497;47.410;9.740;2023-03-21T12:19:10;4.73;;;3.70;;
4963;SDS011;2497;47.410;9.740;2023-03-21T12:21:48;4.13;;;3.00;;
4963;SDS011;2497;47.410;9.740;2023-03-21T12:24:23;5.37;;;2.77;;
4963;SDS011;2497;47.410;9.740;2023-03-21T12:26:56;4.60;;;2.13;;
4963;SDS011;2497;47.410;9.740;2023-03-21T12:29:42;5.20;;;2.70;;
4963;SDS011;2497;47.410;9.740;2023-03-21T12:32:24;4.60;;;2.90;;
4963;SDS011;2497;47.410;9.740;2023-03-21T12:35:14;4.30;;;3.20;;
4963;SDS011;2497;47.410;9.740;2023-03-21T12:37:50;3.93;;;2.53;;
4963;SDS011;2497;47.410;9.740;2023-03-21T12:40:26;3.90;;;3.23;;
4963;SDS011;2497;47.410;9.740;2023-03-21T12:43:11;4.17;;;3.20;;
4963;SDS011;2497;47.410;9.740;2023-03-21T12:45:56;11.53;;;5.00;;
4963;SDS011;2497;47.410;9.740;2023-03-21T12:48:29;6.13;;;4.07;;
4963;SDS011;2497;47.410;9.740;2023-03-21T12:51:03;8.40;;;4.43;;
4963;SDS011;2497;47.410;9.740;2023-03-21T12:53:38;7.27;;;3.23;;
4963;SDS011;2497;47.410;9.740;2023-03-21T12:56:19;3.30;;;2.60;;
4963;SDS011;2497;47.410;9.740;2023-03-21T12:58:50;3.40;;;2.40;;
4963;SDS011;2497;47.410;9.740;2023-03-21T13:01:23;2.97;;;2.37;;
4963;SDS011;2497;47.410;9.740;2023-03-21T13:04:03;5.20;;;3.33;;
4963;SDS011;2497;47.410;9.740;2023-03-21T13:06:40;5.60;;;2.83;;
4963;SDS011;2497;47.410;9.740;2023-03-21T13:09:10;3.80;;;2.47;;
4963;SDS011;2497;47.410;9.740;2023-03-21T13:11:41;2.77;;;1.90;;
4963;SDS011;2497;47.410;9.740;2023-03-21T13:14:11;4.70;;;2.30;;
4963;SDS011;2497;47.410;9.740;2023-03-21T13:16:46;6.87;;;2.70;;
4963;SDS011;2497;47.410;9.740;2023-03-21T13:19:18;3.50;;;2.83;;
4963;SDS011;2497;47.410;9.740;2023-03-21T13:21:54;4.90;;;2.90;;
4963;SDS011;2497;47.410;9.740;2023-03-21T13:24:27;6.93;;;2.33;;
4963;SDS011;2497;47.410;9.740;2023-03-21T13:27:01;4.73;;;2.77;;
4963;SDS011;2497;47.410;9.740;2023-03-21T13:29:32;3.17;;;2.20;;
4963;SDS011;2497;47.410;9.740;2023-03-21T13:32:14;3.03;;;1.83;;
4963;SDS011;2497;47.410;9.740;2023-03-21T13:34:46;2.33;;;2.07;;
4963;SDS011;2497;47.410;9.740;2023-03-21T13:37:20;5.27;;;2.10;;
4963;SDS011;2497;47.410;9.740;2023-03-21T13:39:50;4.77;;;2.40;;
4963;SDS011;2497;47.410;9.740;2023-03-21T13:42:21;5.10;;;2.43;;
4963;SDS011;2497;47.410;9.740;2023-03-21T13:44:51;2.60;;;2.40;;
4963;SDS011;2497;47.410;9.740;2023-03-21T13:47:26;2.90;;;2.20;;
4963;SDS011;2497;47.410;9.740;2023-03-21T13:55:39;4.00;;;2.50;;
4963;SDS011;2497;47.410;9.740;2023-03-21T14:01:13;3.33;;;2.40;;
4963;SDS011;2497;47.410;9.740;2023-03-21T14:03:49;4.40;;;2.50;;
4963;SDS011;2497;47.410;9.740;2023-03-21T14:06:25;3.87;;;2.23;;
4963;SDS011;2497;47.410;9.740;2023-03-21T14:08:59;5.53;;;2.50;;
4963;SDS011;2497;47.410;9.740;2023-03-21T14:11:28;2.87;;;2.20;;
4963;SDS011;2497;47.410;9.740;2023-03-21T14:13:58;3.63;;;2.63;;
4963;SDS011;2497;47.410;9.740;2023-03-21T14:16:26;8.23;;;3.13;;
4963;SDS011;2497;47.410;9.740;2023-03-21T14:18:56;3.70;;;2.53;;
4963;SDS011;2497;47.410;9.740;2023-03-21T14:21:27;2.83;;;2.23;;
4963;SDS011;2497;47.410;9.740;2023-03-21T14:23:59;4.97;;;3.10;;
4963;SDS011;2497;47.410;9.740;2023-03-21T14:26:29;3.60;;;2.90;;
4963;SDS011;2497;47.410;9.740;2023-03-21T14:29:01;7.40;;;3.17;;
4963;SDS011;2497;47.410;9.740;2023-03-21T14:31:31;3.57;;;3.10;;
4963;SDS011;2497;47.410;9.740;2023-03-21T14:34:00;7.07;;;4.40;;
4963;SDS011;2497;47.410;9.740;2023-03-21T14:36:30;5.53;;;3.67;;
4963;SDS011;2497;47.410;9.740;2023-03-21T14:39:04;6.37;;;3.33;;
4963;SDS011;2497;47.410;9.740;2023-03-21T14:41:34;5.30;;;2.90;;
4963;SDS011;2497;47.410;9.740;2023-03-21T14:44:16;5.00;;;3.07;;
4963;SDS011;2497;47.410;9.740;2023-03-21T14:46:58;12.30;;;3.17;;
4963;SDS011;2497;47.410;9.740;2023-03-21T14:49:28;12.97;;;3.33;;
4963;SDS011;2497;47.410;9.740;2023-03-21T14:51:58;5.90;;;3.63;;
4963;SDS011;2497;47.410;9.740;2023-03-21T14:54:26;9.20;;;3.13;;
4963;SDS011;2497;47.410;9.740;2023-03-21T14:56:56;5.13;;;3.23;;
4963;SDS011;2497;47.410;9.740;2023-03-21T14:59:28;4.40;;;3.50;;
4963;SDS011;2497;47.410;9.740;2023-03-21T15:01:58;8.03;;;3.23;;
4963;SDS011;2497;47.410;9.740;2023-03-21T15:04:33;4.50;;;3.40;;
4963;SDS011;2497;47.410;9.740;2023-03-21T15:07:01;4.43;;;3.30;;
4963;SDS011;2497;47.410;9.740;2023-03-21T15:09:32;5.60;;;4.10;;
4963;SDS011;2497;47.410;9.740;2023-03-21T15:12:00;8.70;;;4.30;;
4963;SDS011;2497;47.410;9.740;2023-03-21T15:14:33;6.60;;;3.83;;
4963;SDS011;2497;47.410;9.740;2023-03-21T15:17:01;8.50;;;4.00;;
4963;SDS011;2497;47.410;9.740;2023-03-21T15:19:32;5.00;;;3.40;;
4963;SDS011;2497;47.410;9.740;2023-03-21T15:22:04;10.57;;;4.80;;
4963;SDS011;2497;47.410;9.740;2023-03-21T15:24:39;6.63;;;3.63;;
4963;SDS011;2497;47.410;9.740;2023-03-21T15:27:11;5.60;;;3.60;;
4963;SDS011;2497;47.410;9.740;2023-03-21T15:29:41;6.50;;;4.20;;
4963;SDS011;2497;47.410;9.740;2023-03-21T15:32:13;8.10;;;3.57;;
4963;SDS011;2497;47.410;9.740;2023-03-21T15:34:44;5.63;;;3.77;;
4963;SDS011;2497;47.410;9.740;2023-03-21T15:37:13;7.30;;;4.37;;
4963;SDS011;2497;47.410;9.740;2023-03-21T15:39:43;7.73;;;3.70;;
4963;SDS011;2497;47.410;9.740;2023-03-21T15:42:22;5.50;;;4.07;;
4963;SDS011;2497;47.410;9.740;2023-03-21T15:44:56;7.93;;;4.60;;
4963;SDS011;2497;47.410;9.740;2023-03-21T15:47:39;12.73;;;4.77;;
4963;SDS011;2497;47.410;9.740;2023-03-21T15:50:10;7.00;;;4.60;;
4963;SDS011;2497;47.410;9.740;2023-03-21T15:52:47;5.10;;;3.93;;
4963;SDS011;2497;47.410;9.740;2023-03-21T15:55:16;8.33;;;4.40;;